createdAt,value
2023-05-24T00:01:37.685Z,202.23
2023-05-24T00:04:05.274Z,184.38
2023-05-24T00:06:34.978Z,163.25
2023-05-24T00:09:02.752Z,153.23
2023-05-24T00:11:30.459Z,158.68
2023-05-24T00:13:58.061Z,165.00
2023-05-24T00:16:25.934Z,191.73
2023-05-24T00:18:54.951Z,190.27
2023-05-24T00:21:22.598Z,232.73
2023-05-24T00:23:51.889Z,190.00
2023-05-24T00:26:19.449Z,168.25
2023-05-24T00:28:53.782Z,205.90
2023-05-24T00:31:21.445Z,161.63
2023-05-24T00:33:49.062Z,178.20
2023-05-24T00:36:16.632Z,198.60
2023-05-24T00:38:44.324Z,214.70
2023-05-24T00:41:11.837Z,194.95
2023-05-24T00:43:39.552Z,185.68
2023-05-24T00:46:25.703Z,207.20
2023-05-24T00:48:55.620Z,170.90
2023-05-24T00:51:26.552Z,207.40
2023-05-24T00:53:55.207Z,174.85
2023-05-24T00:56:23.522Z,174.88
2023-05-24T00:58:54.909Z,187.15
2023-05-24T01:01:26.286Z,190.90
2023-05-24T01:03:54.881Z,187.27
2023-05-24T01:06:23.509Z,184.98
2023-05-24T01:09:29.036Z,198.18
2023-05-24T01:12:05.798Z,193.65
2023-05-24T01:15:28.659Z,266.33
2023-05-24T01:18:22.210Z,194.18
2023-05-24T01:21:06.819Z,201.32
2023-05-24T01:23:52.418Z,243.63
2023-05-24T01:26:45.908Z,232.20
2023-05-24T01:29:14.883Z,255.75
2023-05-24T01:31:43.276Z,204.85
2023-05-24T01:34:12.270Z,220.65
2023-05-24T01:36:40.625Z,214.35
2023-05-24T01:39:08.325Z,180.73
2023-05-24T01:42:08.215Z,225.90
2023-05-24T01:45:12.341Z,147.70
2023-05-24T01:47:55.779Z,152.70
2023-05-24T01:50:30.379Z,163.95
2023-05-24T01:53:08.479Z,160.05
2023-05-24T01:55:38.140Z,149.93
2023-05-24T01:58:08.694Z,164.13
2023-05-24T02:00:39.031Z,160.35
2023-05-24T02:03:07.501Z,201.90
2023-05-24T02:05:37.717Z,246.27
2023-05-24T02:08:06.974Z,234.82
2023-05-24T02:10:34.934Z,238.80
2023-05-24T02:13:02.492Z,226.93
2023-05-24T02:15:30.692Z,291.90
2023-05-24T02:17:59.450Z,255.95
2023-05-24T02:20:31.079Z,265.10
2023-05-24T02:22:58.911Z,262.30
2023-05-24T02:25:27.115Z,268.30
2023-05-24T02:27:54.760Z,277.80
2023-05-24T02:30:22.349Z,273.38
2023-05-24T02:32:50.012Z,275.63
2023-05-24T02:35:17.589Z,290.23
2023-05-24T02:37:45.232Z,282.83
2023-05-24T02:40:13.475Z,300.20
2023-05-24T02:42:41.060Z,290.27
2023-05-24T02:45:09.277Z,268.60
2023-05-24T02:47:36.851Z,264.25
2023-05-24T02:50:04.978Z,288.27
2023-05-24T02:52:33.190Z,284.88
2023-05-24T02:55:00.938Z,304.20
2023-05-24T02:57:28.993Z,274.58
2023-05-24T02:59:56.615Z,284.08
2023-05-24T03:02:24.385Z,291.35
2023-05-24T03:04:52.977Z,293.63
2023-05-24T03:07:20.481Z,285.42
2023-05-24T03:09:48.043Z,291.83
2023-05-24T03:12:15.962Z,295.95
2023-05-24T03:14:43.710Z,292.38
2023-05-24T03:17:12.017Z,288.52
2023-05-24T03:19:39.606Z,277.67
2023-05-24T03:22:07.186Z,257.42
2023-05-24T03:24:38.562Z,264.63
2023-05-24T03:27:07.167Z,311.20
2023-05-24T03:29:34.711Z,304.45
2023-05-24T03:32:03.978Z,294.55
2023-05-24T03:34:31.738Z,267.48
2023-05-24T03:36:59.512Z,360.27
2023-05-24T03:39:27.316Z,286.50
2023-05-24T03:42:10.200Z,263.90
2023-05-24T03:44:38.836Z,284.92
2023-05-24T03:47:07.395Z,100.05
2023-05-24T03:49:35.082Z,118.13
2023-05-24T03:52:03.480Z,105.25
2023-05-24T03:54:31.298Z,134.55
2023-05-24T03:56:59.010Z,109.60
2023-05-24T03:59:27.091Z,102.60
2023-05-24T04:01:55.637Z,108.05
2023-05-24T04:04:23.737Z,215.18
2023-05-24T04:06:53.928Z,87.47
2023-05-24T04:09:23.618Z,125.93
2023-05-24T04:11:51.737Z,135.80
2023-05-24T04:14:19.357Z,25.80
2023-05-24T04:16:47.446Z,19.55
2023-05-24T04:19:14.988Z,19.73
2023-05-24T04:21:42.769Z,14.57
2023-05-24T04:24:10.627Z,14.25
2023-05-24T04:26:38.252Z,12.02
2023-05-24T04:29:07.790Z,11.00
2023-05-24T04:31:36.190Z,9.40
2023-05-24T04:34:04.457Z,10.80
2023-05-24T04:36:34.020Z,10.48
2023-05-24T04:39:05.023Z,9.82
2023-05-24T04:41:33.234Z,10.38
2023-05-24T04:44:00.961Z,9.43
2023-05-24T04:46:28.852Z,10.25
2023-05-24T04:48:56.467Z,12.13
2023-05-24T04:51:24.421Z,12.52
2023-05-24T04:53:51.925Z,14.05
2023-05-24T04:56:20.085Z,11.68
2023-05-24T04:58:48.266Z,10.77
2023-05-24T05:01:15.893Z,11.25
2023-05-24T05:06:12.657Z,12.52
2023-05-24T05:13:34.942Z,14.85
2023-05-24T05:18:30.355Z,12.13
2023-05-24T05:23:25.939Z,14.07
2023-05-24T05:28:21.278Z,10.07
2023-05-24T05:33:16.451Z,10.20
2023-05-24T05:35:43.992Z,10.30
2023-05-24T05:45:35.883Z,10.77
2023-05-24T05:48:03.740Z,10.98
2023-05-24T05:50:31.236Z,10.88
2023-05-24T05:52:58.847Z,9.77
2023-05-24T05:55:26.453Z,10.18
2023-05-24T05:57:53.905Z,10.30
2023-05-24T06:02:50.052Z,10.40
2023-05-24T06:05:19.308Z,12.93
2023-05-24T06:07:47.451Z,12.68
2023-05-24T06:10:15.009Z,14.38
2023-05-24T06:12:42.721Z,15.57
2023-05-24T06:15:11.001Z,20.48
2023-05-24T06:17:38.701Z,22.58
2023-05-24T06:20:11.206Z,28.70
2023-05-24T06:22:39.862Z,28.70
2023-05-24T06:25:07.967Z,29.95
2023-05-24T06:27:35.559Z,55.17
2023-05-24T06:30:03.857Z,27.80
2023-05-24T06:32:31.397Z,37.10
2023-05-24T06:34:58.922Z,21.35
2023-05-24T06:37:26.517Z,21.77
2023-05-24T06:39:55.244Z,18.63
2023-05-24T06:42:22.830Z,34.67
2023-05-24T06:44:52.248Z,34.03
2023-05-24T06:47:22.395Z,30.92
2023-05-24T06:49:51.026Z,34.03
2023-05-24T06:52:18.581Z,46.63
2023-05-24T06:54:46.057Z,43.55
2023-05-24T06:57:13.553Z,60.38
2023-05-24T06:59:41.447Z,79.70
2023-05-24T07:02:09.382Z,65.22
2023-05-24T07:04:36.930Z,63.67
2023-05-24T07:07:04.602Z,26.27
2023-05-24T07:09:32.167Z,31.98
2023-05-24T07:12:00.020Z,37.28
2023-05-24T07:14:28.258Z,46.15
2023-05-24T07:17:00.003Z,55.70
2023-05-24T07:19:29.588Z,56.65
2023-05-24T07:21:57.574Z,55.97
2023-05-24T07:24:25.573Z,65.88
2023-05-24T07:26:53.720Z,32.55
2023-05-24T07:29:21.911Z,63.05
2023-05-24T07:31:49.641Z,61.00
2023-05-24T07:34:19.052Z,69.32
2023-05-24T07:36:48.463Z,73.57
2023-05-24T07:39:16.815Z,51.13
2023-05-24T07:41:44.905Z,28.00
2023-05-24T07:44:13.575Z,33.63
2023-05-24T07:46:41.141Z,21.83
2023-05-24T07:49:08.712Z,46.72
2023-05-24T07:51:36.929Z,75.80
2023-05-24T07:54:04.990Z,59.88
2023-05-24T07:56:32.913Z,36.97
2023-05-24T07:59:04.866Z,20.73
2023-05-24T08:01:34.527Z,49.67
2023-05-24T08:04:05.743Z,28.55
2023-05-24T08:06:33.424Z,17.80
2023-05-24T08:09:05.836Z,39.42
2023-05-24T08:11:33.299Z,89.53
2023-05-24T08:14:00.955Z,68.18
2023-05-24T08:16:28.875Z,78.30
2023-05-24T08:18:56.529Z,64.28
2023-05-24T08:21:24.071Z,75.13
2023-05-24T08:23:51.653Z,66.85
2023-05-24T08:26:21.033Z,49.05
2023-05-24T08:28:48.637Z,24.17
2023-05-24T08:31:16.498Z,18.65
2023-05-24T08:33:44.558Z,24.20
2023-05-24T08:36:12.196Z,70.90
2023-05-24T08:38:39.704Z,60.47
2023-05-24T08:41:08.538Z,75.38
2023-05-24T08:43:37.971Z,93.50
2023-05-24T08:46:07.212Z,89.85
2023-05-24T08:48:46.853Z,88.00
2023-05-24T08:51:16.266Z,93.55
2023-05-24T08:53:50.308Z,76.38
2023-05-24T08:56:19.190Z,83.03
2023-05-24T08:58:47.305Z,73.80
2023-05-24T09:01:17.663Z,79.47
2023-05-24T09:03:48.132Z,80.32
2023-05-24T09:06:19.452Z,73.07
2023-05-24T09:08:50.209Z,52.92
2023-05-24T09:11:19.139Z,79.18
2023-05-24T09:13:48.276Z,74.90
2023-05-24T09:16:16.298Z,54.75
2023-05-24T09:18:43.878Z,68.00
2023-05-24T09:21:12.305Z,69.63
2023-05-24T09:23:41.658Z,70.13
2023-05-24T09:26:11.145Z,64.05
2023-05-24T09:28:39.259Z,97.35
2023-05-24T09:31:08.080Z,75.55
2023-05-24T09:33:36.442Z,123.65
2023-05-24T09:36:07.145Z,93.65
2023-05-24T09:38:36.475Z,119.68
2023-05-24T09:41:08.877Z,94.95
2023-05-24T09:43:52.050Z,81.45
2023-05-24T09:46:20.092Z,62.08
2023-05-24T09:48:58.741Z,88.18
2023-05-24T09:51:27.187Z,98.97
2023-05-24T09:53:58.071Z,131.32
2023-05-24T09:56:27.362Z,91.70
2023-05-24T09:58:55.178Z,115.35
2023-05-24T10:01:28.269Z,93.00
2023-05-24T10:03:59.365Z,99.00
2023-05-24T10:06:27.848Z,107.90
2023-05-24T10:08:57.194Z,163.40
2023-05-24T10:11:24.964Z,144.68
2023-05-24T10:13:53.078Z,118.35
2023-05-24T10:16:20.730Z,88.47
2023-05-24T10:21:23.859Z,69.25
2023-05-24T10:23:59.080Z,54.67
2023-05-24T10:26:32.819Z,90.65
2023-05-24T10:29:10.792Z,131.80
2023-05-24T10:31:41.640Z,172.85
2023-05-24T10:34:10.492Z,78.25
2023-05-24T10:36:40.689Z,59.75
2023-05-24T10:39:12.356Z,58.85
2023-05-24T10:41:43.138Z,62.47
2023-05-24T10:44:13.380Z,48.15
2023-05-24T10:47:08.142Z,21.85
2023-05-24T10:49:37.579Z,19.27
2023-05-24T10:52:10.733Z,26.50
2023-05-24T10:54:39.984Z,30.00
2023-05-24T10:57:08.821Z,27.52
2023-05-24T11:02:14.075Z,18.23
2023-05-24T11:04:49.195Z,19.05
2023-05-24T11:07:19.301Z,15.63
2023-05-24T11:09:53.140Z,30.77
2023-05-24T11:12:20.978Z,24.08
2023-05-24T11:14:52.412Z,78.38
2023-05-24T11:17:24.145Z,84.85
2023-05-24T11:19:55.762Z,90.18
2023-05-24T11:22:25.776Z,78.68
2023-05-24T11:24:53.997Z,151.65
2023-05-24T11:27:23.116Z,154.25
2023-05-24T11:29:51.123Z,103.78
2023-05-24T11:32:21.204Z,75.22
2023-05-24T11:34:49.811Z,71.13
2023-05-24T11:37:18.661Z,133.65
2023-05-24T11:39:54.233Z,85.53
2023-05-24T11:42:23.587Z,92.68
2023-05-24T11:44:53.423Z,77.43
2023-05-24T11:47:22.509Z,72.05
2023-05-24T11:49:52.050Z,84.95
2023-05-24T11:52:22.186Z,25.05
2023-05-24T11:54:50.492Z,58.38
2023-05-24T11:57:26.265Z,55.13
2023-05-24T11:59:53.906Z,50.58
2023-05-24T12:02:23.456Z,38.30
2023-05-24T12:04:51.260Z,51.05
2023-05-24T12:07:18.974Z,46.40
2023-05-24T12:09:46.759Z,23.42
2023-05-24T12:12:14.448Z,17.58
2023-05-24T12:14:42.307Z,16.25
2023-05-24T12:17:18.527Z,29.52
2023-05-24T12:19:51.372Z,53.10
2023-05-24T12:22:18.918Z,40.60
2023-05-24T12:27:17.263Z,23.13
2023-05-24T12:29:44.798Z,41.17
2023-05-24T12:34:44.615Z,58.20
2023-05-24T12:37:13.809Z,64.95
2023-05-24T12:39:43.541Z,83.97
2023-05-24T12:42:15.353Z,74.07
2023-05-24T12:44:45.072Z,91.78
2023-05-24T12:47:12.963Z,90.03
2023-05-24T12:49:40.514Z,84.88
2023-05-24T12:57:03.754Z,18.25
2023-05-24T12:59:31.407Z,28.88
2023-05-24T13:01:59.033Z,45.05
2023-05-24T13:04:27.184Z,54.75
2023-05-24T13:06:55.595Z,66.30
2023-05-24T13:09:23.920Z,63.58
2023-05-24T13:11:52.847Z,75.38
2023-05-24T13:14:20.663Z,67.10
2023-05-24T13:16:49.113Z,66.68
2023-05-24T13:19:17.481Z,65.88
2023-05-24T13:21:45.621Z,46.78
2023-05-24T13:24:16.433Z,60.75
2023-05-24T13:26:45.386Z,55.42
2023-05-24T13:31:44.967Z,43.33
2023-05-24T13:34:13.034Z,54.60
2023-05-24T13:39:15.612Z,44.70
2023-05-24T13:41:45.203Z,76.25
2023-05-24T13:44:14.968Z,53.10
2023-05-24T13:46:43.466Z,130.13
2023-05-24T13:49:11.916Z,99.82
2023-05-24T13:51:40.530Z,133.55
2023-05-24T13:54:08.458Z,94.65
2023-05-24T13:56:36.673Z,102.38
2023-05-24T13:59:05.712Z,86.43
2023-05-24T14:01:37.684Z,32.38
2023-05-24T14:04:06.328Z,28.48
2023-05-24T14:06:35.140Z,25.58
2023-05-24T14:09:02.760Z,47.22
2023-05-24T14:16:31.698Z,86.13
2023-05-24T14:18:59.502Z,87.20
2023-05-24T14:21:27.917Z,55.45
2023-05-24T14:23:55.708Z,87.22
2023-05-24T14:26:23.830Z,93.82
2023-05-24T14:28:54.431Z,112.55
2023-05-24T14:31:24.467Z,92.47
2023-05-24T14:33:51.979Z,87.72
2023-05-24T14:36:19.600Z,85.05
2023-05-24T14:38:47.173Z,79.43
2023-05-24T14:41:15.477Z,64.20
2023-05-24T14:43:43.031Z,61.22
2023-05-24T14:51:05.384Z,52.53
2023-05-24T14:56:00.252Z,45.10
2023-05-24T14:58:27.746Z,49.33
2023-05-24T15:00:55.258Z,47.38
2023-05-24T15:03:23.149Z,52.63
2023-05-24T15:05:51.337Z,54.17
2023-05-24T15:08:18.865Z,44.30
2023-05-24T15:10:46.578Z,47.22
2023-05-24T15:13:14.368Z,46.08
2023-05-24T15:18:09.983Z,44.58
2023-05-24T15:20:37.761Z,315.45
2023-05-24T15:23:05.810Z,217.45
2023-05-24T15:25:33.425Z,469.95
2023-05-24T15:28:01.389Z,370.38
2023-05-24T15:30:29.324Z,1999.90
2023-05-24T15:32:57.316Z,50.80
2023-05-24T15:35:24.854Z,127.35
2023-05-24T15:37:52.435Z,180.68
2023-05-24T15:40:23.879Z,287.38
2023-05-24T15:42:52.966Z,242.85
2023-05-24T15:45:21.256Z,246.48
2023-05-24T15:47:48.894Z,184.60
2023-05-24T15:52:44.137Z,149.02
2023-05-24T15:55:11.982Z,152.75
2023-05-24T15:57:39.555Z,343.48
2023-05-24T16:00:07.956Z,906.13
2023-05-24T16:02:41.234Z,889.08
2023-05-24T16:05:09.422Z,119.60
2023-05-24T16:07:37.058Z,82.68
2023-05-24T16:12:33.118Z,97.90
2023-05-24T16:15:01.810Z,89.28
2023-05-24T16:17:29.668Z,102.57
2023-05-24T16:19:57.457Z,130.50
2023-05-24T16:22:25.933Z,124.78
2023-05-24T16:24:54.232Z,100.63
2023-05-24T16:27:22.121Z,94.75
2023-05-24T16:29:49.639Z,102.53
2023-05-24T16:32:17.285Z,155.18
2023-05-24T16:34:56.117Z,230.15
2023-05-24T16:37:24.692Z,133.43
2023-05-24T16:39:52.297Z,139.35
2023-05-24T16:42:19.854Z,125.05
2023-05-24T16:44:47.813Z,952.80
2023-05-24T16:47:15.360Z,1042.10
2023-05-24T16:52:10.184Z,368.33
2023-05-24T16:57:05.250Z,137.65
2023-05-24T16:59:34.141Z,121.40
2023-05-24T17:02:01.765Z,118.13
2023-05-24T17:04:29.583Z,120.80
2023-05-24T17:06:57.234Z,118.85
2023-05-24T17:09:24.725Z,134.27
2023-05-24T17:16:47.066Z,128.60
2023-05-24T17:24:09.575Z,99.35
2023-05-24T17:29:06.571Z,105.93
2023-05-24T17:31:34.265Z,109.18
2023-05-24T17:36:33.384Z,109.78
2023-05-24T17:39:00.976Z,128.13
2023-05-24T17:41:28.578Z,120.72
2023-05-24T17:43:57.922Z,117.10
2023-05-24T17:46:25.971Z,163.63
2023-05-24T17:48:53.764Z,141.38
2023-05-24T17:53:48.748Z,44.03
2023-05-24T17:56:16.382Z,49.20
2023-05-24T17:58:45.518Z,61.03
2023-05-24T18:01:15.345Z,62.55
2023-05-24T18:06:10.493Z,80.63
2023-05-24T18:08:43.034Z,95.97
2023-05-24T18:11:12.696Z,86.18
2023-05-24T18:13:42.737Z,102.05
2023-05-24T18:16:12.095Z,129.25
2023-05-24T18:18:40.881Z,130.82
2023-05-24T18:21:09.880Z,126.90
2023-05-24T18:23:38.164Z,87.28
2023-05-24T18:26:11.122Z,83.32
2023-05-24T18:28:39.537Z,117.38
2023-05-24T18:31:10.517Z,77.07
2023-05-24T18:33:38.560Z,74.75
2023-05-24T18:38:35.526Z,335.55
2023-05-24T18:41:06.379Z,1999.90
2023-05-24T18:43:34.500Z,1999.90
2023-05-24T18:46:02.377Z,1999.90
2023-05-24T18:48:30.024Z,1999.90
2023-05-24T18:50:57.736Z,1999.90
2023-05-24T18:53:25.973Z,1999.90
2023-05-24T18:55:53.489Z,1999.90
2023-05-24T18:58:21.028Z,1999.90
2023-05-24T19:00:48.727Z,1999.90
2023-05-24T19:03:17.004Z,1235.55
2023-05-24T19:05:44.665Z,460.75
2023-05-24T19:08:12.333Z,514.47
2023-05-24T19:10:39.855Z,1270.40
2023-05-24T19:13:07.673Z,617.08
2023-05-24T19:15:39.017Z,636.80
2023-05-24T19:18:06.668Z,653.72
2023-05-24T19:20:34.359Z,736.15
2023-05-24T19:23:09.217Z,775.17
2023-05-24T19:25:41.956Z,732.38
2023-05-24T19:28:11.663Z,708.25
2023-05-24T19:30:39.660Z,754.70
2023-05-24T19:33:07.744Z,787.22
2023-05-24T19:38:04.262Z,768.10
2023-05-24T19:40:31.780Z,767.20
2023-05-24T19:42:59.325Z,787.92
2023-05-24T19:45:27.043Z,784.35
2023-05-24T19:47:54.606Z,794.03
2023-05-24T19:50:22.160Z,795.38
2023-05-24T19:52:49.692Z,815.03
2023-05-24T19:55:17.427Z,862.03
2023-05-24T19:57:44.978Z,835.42
2023-05-24T20:00:14.013Z,842.58
2023-05-24T20:02:41.518Z,862.60
2023-05-24T20:05:09.495Z,842.10
2023-05-24T20:07:37.314Z,858.13
2023-05-24T20:10:05.771Z,844.08
2023-05-24T20:12:34.683Z,904.20
2023-05-24T20:15:02.642Z,896.47
2023-05-24T20:17:30.844Z,898.00
2023-05-24T20:19:58.546Z,896.40
2023-05-24T20:22:26.159Z,937.17
2023-05-24T20:24:53.781Z,901.20
2023-05-24T20:27:21.505Z,852.97
2023-05-24T20:29:49.046Z,796.97
2023-05-24T20:32:17.085Z,816.15
2023-05-24T20:34:45.559Z,758.17
2023-05-24T20:37:13.067Z,724.55
2023-05-24T20:39:40.620Z,737.53
2023-05-24T20:42:08.954Z,752.50
2023-05-24T20:44:36.573Z,752.97
2023-05-24T20:47:04.327Z,779.85
2023-05-24T20:49:31.883Z,816.03
2023-05-24T20:51:59.561Z,838.97
2023-05-24T20:54:27.317Z,857.85
2023-05-24T20:56:54.886Z,900.28
2023-05-24T20:59:22.419Z,885.90
2023-05-24T21:01:49.941Z,910.78
2023-05-24T21:04:19.550Z,889.92
2023-05-24T21:06:47.243Z,864.65
2023-05-24T21:09:14.741Z,853.47
2023-05-24T21:11:44.274Z,890.67
2023-05-24T21:14:11.823Z,872.97
2023-05-24T21:16:39.582Z,900.03
2023-05-24T21:19:07.274Z,896.10
2023-05-24T21:21:34.836Z,875.65
2023-05-24T21:24:02.500Z,847.60
2023-05-24T21:26:30.269Z,843.60
2023-05-24T21:28:58.082Z,807.10
2023-05-24T21:33:53.477Z,825.47
2023-05-24T21:36:21.268Z,857.25
2023-05-24T21:38:48.913Z,855.22
2023-05-24T21:41:16.586Z,868.10
2023-05-24T21:43:44.167Z,833.38
2023-05-24T21:46:11.867Z,893.63
2023-05-24T21:48:39.697Z,858.10
2023-05-24T21:51:07.327Z,860.17
2023-05-24T21:53:35.082Z,829.30
2023-05-24T21:56:02.859Z,824.15
2023-05-24T21:58:30.549Z,819.97
2023-05-24T22:00:58.134Z,838.22
2023-05-24T22:03:26.026Z,813.30
2023-05-24T22:05:53.818Z,826.97
2023-05-24T22:08:21.306Z,848.55
2023-05-24T22:10:48.799Z,816.67
2023-05-24T22:13:16.453Z,265.77
2023-05-24T22:15:44.177Z,308.33
2023-05-24T22:18:12.767Z,352.67
2023-05-24T22:20:40.307Z,272.30
2023-05-24T22:23:07.936Z,299.73
2023-05-24T22:25:35.695Z,272.80
2023-05-24T22:28:03.312Z,279.77
2023-05-24T22:30:32.205Z,249.65
2023-05-24T22:33:00.201Z,255.65
2023-05-24T22:35:28.767Z,260.67
2023-05-24T22:37:57.568Z,261.58
2023-05-24T22:40:25.184Z,207.15
2023-05-24T22:42:52.753Z,195.75
2023-05-24T22:45:20.275Z,171.40
2023-05-24T22:47:49.262Z,168.02
2023-05-24T22:50:18.171Z,193.10
2023-05-24T22:52:46.702Z,190.10
2023-05-24T22:55:14.218Z,183.05
2023-05-24T22:57:41.788Z,222.82
2023-05-24T23:00:10.147Z,225.40
2023-05-24T23:02:37.957Z,239.07
2023-05-24T23:05:06.730Z,224.07
2023-05-24T23:07:34.336Z,220.85
2023-05-24T23:10:03.132Z,243.55
2023-05-24T23:12:30.898Z,240.32
2023-05-24T23:14:58.603Z,260.88
2023-05-24T23:17:26.398Z,282.75
2023-05-24T23:19:54.123Z,293.05
2023-05-24T23:22:23.616Z,298.65
2023-05-24T23:24:51.302Z,277.83
2023-05-24T23:27:18.938Z,307.27
2023-05-24T23:29:46.593Z,285.45
2023-05-24T23:32:14.176Z,302.02
2023-05-24T23:34:41.648Z,299.27
2023-05-24T23:37:09.294Z,290.08
2023-05-24T23:39:36.834Z,326.08
2023-05-24T23:42:05.094Z,333.95
2023-05-24T23:44:32.888Z,334.40
2023-05-24T23:47:02.315Z,312.00
2023-05-24T23:49:30.169Z,407.65
2023-05-24T23:51:57.857Z,363.73
2023-05-24T23:54:25.463Z,337.42
2023-05-24T23:56:52.943Z,380.75
2023-05-24T23:59:20.869Z,322.00
